Time;durP1;ratioP1;P1;durP2;ratioP2;P2;SDS_P1;SDS_P2;PMS_P1;PMS_P2;Temp;Humidity;BMP_temperature;BMP_pressure;BME280_temperature;BME280_humidity;BME280_pressure;Samples;Min_cycle;Max_cycle;Signal;HPM_P1;HPM_P2
2021/10/14 00:01:04;;;;;;;16.52;10.68;;;230.90;2252.80;;;;;;5093797;28;20081;-84
2021/10/14 00:03:30;;;;;;;13.00;9.90;;;231.00;2252.80;;;;;;5093373;28;20020;-84
2021/10/14 00:05:56;;;;;;;12.30;9.55;;;230.90;2252.80;;;;;;5093718;28;20353;-83
2021/10/14 00:08:22;;;;;;;9.93;8.25;;;230.90;2252.80;;;;;;5093540;28;20027;-84
2021/10/14 00:10:48;;;;;;;11.73;8.20;;;230.90;2252.80;;;;;;5093899;28;20464;-84
2021/10/14 00:13:15;;;;;;;11.30;9.23;;;230.90;2252.80;;;;;;5092707;28;20024;-84
2021/10/14 00:15:41;;;;;;;10.60;8.38;;;230.90;2252.80;;;;;;5093220;28;20020;-84
2021/10/14 00:18:08;;;;;;;9.73;7.57;;;230.80;2252.80;;;;;;5093440;28;20070;-84
2021/10/14 00:20:34;;;;;;;7.95;6.70;;;230.80;2252.80;;;;;;5093541;28;20028;-83
2021/10/14 00:23:00;;;;;;;11.55;9.55;;;230.80;2252.80;;;;;;5093031;28;20535;-84
2021/10/14 00:25:26;;;;;;;11.65;8.45;;;230.90;2252.80;;;;;;5093368;28;20029;-84
2021/10/14 00:27:52;;;;;;;15.85;12.63;;;230.80;2252.80;;;;;;5093222;28;20032;-84
2021/10/14 00:30:19;;;;;;;12.38;9.50;;;256.10;2252.80;;;;;;5093081;28;20030;-84
2021/10/14 00:32:46;;;;;;;13.45;7.97;;;230.60;2252.80;;;;;;5093272;28;20021;-84
2021/10/14 00:35:12;;;;;;;8.27;7.20;;;230.80;2252.80;;;;;;5092724;28;20051;-84
2021/10/14 00:37:37;;;;;;;9.88;8.30;;;230.80;2252.80;;;;;;5092769;28;20040;-83
2021/10/14 00:40:05;;;;;;;12.45;8.65;;;230.70;2252.80;;;;;;5093153;28;20081;-84
2021/10/14 00:42:31;;;;;;;11.20;7.88;;;230.70;2252.80;;;;;;5093091;28;20028;-84
2021/10/14 00:44:58;;;;;;;11.85;8.23;;;230.80;2252.80;;;;;;5092907;28;20024;-84
2021/10/14 00:47:27;;;;;;;10.25;8.15;;;230.80;2252.80;;;;;;5092900;28;20043;-84
2021/10/14 00:49:54;;;;;;;11.38;8.15;;;230.80;2252.80;;;;;;5094104;28;20043;-83
2021/10/14 00:52:20;;;;;;;11.52;8.32;;;230.80;2252.80;;;;;;5092994;28;20059;-84
2021/10/14 00:54:47;;;;;;;10.45;8.35;;;230.90;2252.80;;;;;;5092940;28;20024;-84
2021/10/14 00:57:13;;;;;;;11.50;8.70;;;230.80;2252.80;;;;;;5092586;28;20032;-84
2021/10/14 00:59:40;;;;;;;12.73;9.82;;;231.10;2252.80;;;;;;5092756;28;20114;-84
2021/10/14 01:02:07;;;;;;;16.75;12.00;;;230.80;2252.80;;;;;;5092810;28;20111;-83
2021/10/14 01:04:33;;;;;;;12.95;9.75;;;230.80;2252.80;;;;;;5092905;28;20024;-84
2021/10/14 01:06:59;;;;;;;14.18;9.88;;;230.80;2252.80;;;;;;5092803;28;20032;-83
2021/10/14 01:09:25;;;;;;;14.23;10.57;;;230.90;2252.80;;;;;;5092954;28;20069;-83
2021/10/14 01:11:51;;;;;;;15.80;11.55;;;230.90;2252.80;;;;;;5092800;28;20464;-85
2021/10/14 01:14:17;;;;;;;15.23;9.57;;;230.90;2252.80;;;;;;5092936;28;20024;-84
2021/10/14 01:16:46;;;;;;;16.52;11.95;;;230.80;2252.80;;;;;;5093096;28;20089;-85
2021/10/14 01:19:13;;;;;;;13.18;9.93;;;230.80;2252.80;;;;;;5092546;28;20032;-85
2021/10/14 01:21:39;;;;;;;12.65;9.65;;;230.80;2252.80;;;;;;5092709;28;20024;-85
2021/10/14 01:24:06;;;;;;;12.85;9.55;;;230.80;2252.80;;;;;;5092804;28;20529;-83
2021/10/14 01:26:32;;;;;;;14.27;9.68;;;230.80;2252.80;;;;;;5096046;28;20032;-84
2021/10/14 01:28:58;;;;;;;11.27;8.75;;;230.80;2252.80;;;;;;5096785;28;20051;-85
2021/10/14 01:31:25;;;;;;;17.33;9.65;;;230.80;2252.80;;;;;;5096429;28;20024;-84
2021/10/14 01:33:52;;;;;;;11.65;9.77;;;230.80;2252.80;;;;;;5096073;28;20066;-85
2021/10/14 01:36:18;;;;;;;16.25;11.00;;;230.70;2252.80;;;;;;5096326;28;20031;-84
2021/10/14 01:38:44;;;;;;;17.05;11.57;;;230.80;2252.80;;;;;;5096164;28;20028;-83
2021/10/14 01:41:10;;;;;;;17.40;11.82;;;230.90;2252.80;;;;;;5097836;28;20020;-83
2021/10/14 01:43:36;;;;;;;13.68;10.07;;;230.80;2252.80;;;;;;5096363;28;20032;-82
2021/10/14 01:46:03;;;;;;;13.05;10.13;;;230.70;2252.80;;;;;;5096080;28;20110;-83
2021/10/14 01:48:30;;;;;;;10.57;8.80;;;230.70;2252.80;;;;;;5096243;28;20349;-83
2021/10/14 01:50:57;;;;;;;13.48;9.63;;;230.60;2252.80;;;;;;5096270;28;20118;-83
2021/10/14 01:53:23;;;;;;;14.63;10.05;;;230.60;2252.80;;;;;;5096071;28;20483;-83
2021/10/14 01:55:48;;;;;;;10.75;8.85;;;230.60;2252.80;;;;;;5096108;28;20028;-82
2021/10/14 01:58:14;;;;;;;9.50;8.07;;;230.60;2252.80;;;;;;5096160;28;20028;-83
2021/10/14 02:00:41;;;;;;;9.55;7.90;;;230.60;2252.80;;;;;;5095769;28;20036;-83
2021/10/14 02:03:07;;;;;;;12.05;8.77;;;230.60;2252.80;;;;;;5095879;28;20050;-82
2021/10/14 02:05:33;;;;;;;13.98;9.02;;;230.60;2252.80;;;;;;5095923;28;20028;-83
2021/10/14 02:07:59;;;;;;;12.13;9.25;;;230.60;2252.80;;;;;;5095685;28;20038;-83
2021/10/14 02:10:25;;;;;;;13.90;9.00;;;230.60;2252.80;;;;;;5096824;28;20099;-83
2021/10/14 02:12:52;;;;;;;10.07;7.93;;;230.60;2252.80;;;;;;5095833;28;20490;-84
2021/10/14 02:15:18;;;;;;;12.05;9.80;;;230.60;2252.80;;;;;;5095167;28;20107;-82
2021/10/14 02:17:45;;;;;;;10.88;8.32;;;230.50;2252.80;;;;;;5095814;28;20142;-82
2021/10/14 02:20:11;;;;;;;11.77;8.88;;;230.60;2252.80;;;;;;5095628;28;20078;-82
2021/10/14 02:22:37;;;;;;;15.68;9.05;;;230.60;2252.80;;;;;;5095369;28;20028;-82
2021/10/14 02:25:08;;;;;;;12.57;9.35;;;230.60;2252.80;;;;;;5095575;28;20028;-82
2021/10/14 02:27:34;;;;;;;11.05;8.48;;;230.60;2252.80;;;;;;5095525;28;20379;-82
2021/10/14 02:30:01;;;;;;;13.25;9.27;;;230.60;2252.80;;;;;;5095497;28;20028;-82
2021/10/14 02:32:27;;;;;;;13.95;11.10;;;230.70;2252.80;;;;;;5095423;28;20027;-82
2021/10/14 02:34:55;;;;;;;16.45;11.25;;;230.70;2252.80;;;;;;5094823;28;20044;-82
2021/10/14 02:37:21;;;;;;;13.95;10.13;;;230.70;2252.80;;;;;;5094450;28;20435;-82
2021/10/14 02:39:47;;;;;;;13.70;9.57;;;230.70;2252.80;;;;;;5095369;28;20032;-82
2021/10/14 02:42:13;;;;;;;13.10;8.45;;;230.70;2252.80;;;;;;5095188;28;20482;-83
2021/10/14 02:44:38;;;;;;;10.43;7.93;;;230.70;2252.80;;;;;;5095216;28;20383;-83
2021/10/14 02:47:04;;;;;;;13.05;9.35;;;230.70;2252.80;;;;;;5095152;28;20023;-82
2021/10/14 02:49:30;;;;;;;12.05;7.82;;;230.70;2252.80;;;;;;5094753;28;20035;-83
2021/10/14 02:51:56;;;;;;;12.10;8.15;;;230.70;2252.80;;;;;;5095170;28;20028;-82
2021/10/14 02:54:22;;;;;;;10.73;7.13;;;230.70;2252.80;;;;;;5094877;28;20050;-83
2021/10/14 02:56:47;;;;;;;9.90;7.50;;;230.60;2252.80;;;;;;5094895;28;20081;-84
2021/10/14 02:59:13;;;;;;;13.70;8.02;;;230.60;2252.80;;;;;;5094868;28;20036;-83
2021/10/14 03:01:39;;;;;;;13.00;9.27;;;230.60;2252.80;;;;;;5094958;28;20063;-83
2021/10/14 03:04:05;;;;;;;13.48;8.30;;;230.60;2252.80;;;;;;5094648;28;20367;-83
2021/10/14 03:06:31;;;;;;;9.70;7.28;;;230.60;2252.80;;;;;;5094762;28;20028;-82
2021/10/14 03:08:57;;;;;;;9.40;7.32;;;230.60;2252.80;;;;;;5095780;28;20108;-83
2021/10/14 03:11:22;;;;;;;12.05;9.00;;;230.60;2252.80;;;;;;5094425;28;20024;-83
2021/10/14 03:13:48;;;;;;;18.85;10.38;;;230.60;2252.80;;;;;;5094554;28;20020;-82
2021/10/14 03:16:14;;;;;;;14.63;9.70;;;230.50;2252.80;;;;;;5094364;28;20432;-82
2021/10/14 03:18:40;;;;;;;11.43;8.02;;;230.60;2252.80;;;;;;5095594;28;20486;-83
2021/10/14 03:21:06;;;;;;;14.10;9.00;;;230.60;2252.80;;;;;;5094368;28;20024;-82
2021/10/14 03:23:31;;;;;;;22.20;12.90;;;230.60;2252.80;;;;;;5094286;28;20039;-82
2021/10/14 03:25:57;;;;;;;19.13;13.95;;;230.50;2252.80;;;;;;5094061;28;20365;-82
2021/10/14 03:28:23;;;;;;;28.92;18.30;;;230.50;2252.80;;;;;;5094195;28;20165;-82
2021/10/14 03:30:49;;;;;;;13.52;10.65;;;230.60;2252.80;;;;;;5093951;28;20111;-82
2021/10/14 03:33:15;;;;;;;20.27;12.10;;;230.60;2252.80;;;;;;5094269;28;20619;-82
2021/10/14 03:35:41;;;;;;;48.25;26.98;;;230.60;2252.80;;;;;;5094251;28;20048;-82
2021/10/14 03:38:06;;;;;;;21.42;13.68;;;230.60;2252.80;;;;;;5093635;28;20039;-81
2021/10/14 03:40:32;;;;;;;28.90;19.63;;;230.60;2252.80;;;;;;5094050;28;20036;-82
2021/10/14 03:42:58;;;;;;;22.50;14.52;;;230.60;2252.80;;;;;;5095025;28;20024;-82
2021/10/14 03:45:24;;;;;;;19.08;11.88;;;230.60;2252.80;;;;;;5094600;28;20409;-82
2021/10/14 03:47:50;;;;;;;16.17;12.27;;;230.50;2252.80;;;;;;5094956;28;20032;-82
2021/10/14 03:50:16;;;;;;;20.77;13.35;;;230.50;2252.80;;;;;;5093835;28;20024;-82
2021/10/14 03:52:41;;;;;;;19.48;12.27;;;230.60;2252.80;;;;;;5094828;28;20020;-82
2021/10/14 03:55:08;;;;;;;11.90;9.43;;;230.60;2252.80;;;;;;5093697;28;20031;-82
2021/10/14 03:57:34;;;;;;;11.73;8.93;;;230.50;2252.80;;;;;;5093668;28;20032;-81
2021/10/14 04:00:00;;;;;;;11.27;7.38;;;230.50;2252.80;;;;;;5093374;28;20028;-82
2021/10/14 04:02:26;;;;;;;14.40;8.05;;;230.50;2252.80;;;;;;5093508;28;20024;-82
2021/10/14 04:04:51;;;;;;;19.10;12.05;;;230.50;2252.80;;;;;;5093703;28;20024;-82
2021/10/14 04:07:17;;;;;;;22.08;15.88;;;230.60;2252.80;;;;;;5093444;28;20429;-82
2021/10/14 04:09:43;;;;;;;16.90;12.80;;;230.50;2252.80;;;;;;5093534;28;20028;-82
2021/10/14 04:12:09;;;;;;;12.95;9.13;;;230.60;2252.80;;;;;;5093464;28;20066;-83
2021/10/14 04:14:34;;;;;;;18.10;13.63;;;230.60;2252.80;;;;;;5093367;28;20438;-83
2021/10/14 04:17:00;;;;;;;17.23;12.60;;;230.50;2252.80;;;;;;5094487;28;20111;-82
2021/10/14 04:19:26;;;;;;;14.27;11.32;;;230.60;2252.80;;;;;;5093522;28;20116;-82
2021/10/14 04:21:52;;;;;;;33.65;23.15;;;230.60;2252.80;;;;;;5093038;28;20030;-81
2021/10/14 04:24:21;;;;;;;36.90;28.23;;;230.60;2252.80;;;;;;5093256;28;20032;-82
2021/10/14 04:26:46;;;;;;;24.65;18.30;;;230.70;2252.80;;;;;;5092926;28;20028;-82
2021/10/14 04:29:12;;;;;;;28.52;19.42;;;230.70;2252.80;;;;;;5093179;28;20034;-82
2021/10/14 04:31:38;;;;;;;43.17;27.92;;;230.70;2252.80;;;;;;5094325;28;20028;-82
2021/10/14 04:34:06;;;;;;;47.08;30.30;;;230.70;2252.80;;;;;;5092692;28;20093;-83
2021/10/14 04:36:32;;;;;;;43.83;31.20;;;230.70;2252.80;;;;;;5093139;28;20024;-83
2021/10/14 04:38:59;;;;;;;55.58;35.78;;;230.70;2252.80;;;;;;5093055;28;20028;-81
2021/10/14 04:41:25;;;;;;;44.97;30.40;;;230.70;2252.80;;;;;;5092787;28;20520;-82
2021/10/14 04:43:51;;;;;;;44.20;33.47;;;230.60;2252.80;;;;;;5092989;28;20106;-82
2021/10/14 04:46:17;;;;;;;79.05;58.10;;;230.60;2252.80;;;;;;5092874;28;20028;-82
2021/10/14 04:48:42;;;;;;;55.05;41.55;;;230.60;2252.80;;;;;;5092481;28;20032;-82
2021/10/14 04:51:08;;;;;;;32.45;27.30;;;230.60;2252.80;;;;;;5092865;28;20020;-81
2021/10/14 04:53:34;;;;;;;23.95;19.90;;;230.60;2252.80;;;;;;5092929;28;20031;-82
2021/10/14 04:56:01;;;;;;;25.08;18.58;;;230.60;2252.80;;;;;;5092546;28;20054;-82
2021/10/14 04:58:27;;;;;;;21.00;16.48;;;230.60;2252.80;;;;;;5092784;28;20028;-83
2021/10/14 05:00:52;;;;;;;21.40;19.20;;;230.60;2252.80;;;;;;5092242;28;20039;-81
2021/10/14 05:03:19;;;;;;;20.77;18.38;;;230.60;2252.80;;;;;;5092605;28;20028;-81
2021/10/14 05:05:45;;;;;;;21.25;17.30;;;230.60;2252.80;;;;;;5093974;28;20020;-81
2021/10/14 05:08:12;;;;;;;21.00;16.95;;;230.60;2252.80;;;;;;5092690;28;20027;-82
2021/10/14 05:10:38;;;;;;;21.92;16.00;;;230.60;2252.80;;;;;;5093686;28;20020;-81
2021/10/14 05:13:04;;;;;;;18.92;14.55;;;230.60;2252.80;;;;;;5092687;28;20032;-82
2021/10/14 05:15:30;;;;;;;25.55;18.58;;;230.70;2252.80;;;;;;5092753;28;20028;-82
2021/10/14 05:17:55;;;;;;;25.83;18.92;;;230.70;2252.80;;;;;;5092188;28;20092;-81
2021/10/14 05:20:21;;;;;;;33.92;24.77;;;230.50;2252.80;;;;;;5092597;28;20464;-82
2021/10/14 05:22:47;;;;;;;24.55;18.10;;;230.60;2252.80;;;;;;5093139;28;20024;-81
2021/10/14 05:25:13;;;;;;;34.45;22.50;;;230.60;2252.80;;;;;;5095680;28;20032;-81
2021/10/14 05:27:39;;;;;;;53.47;32.97;;;230.60;2252.80;;;;;;5093679;28;20112;-82
2021/10/14 05:30:05;;;;;;;46.67;30.38;;;230.60;2252.80;;;;;;5092294;28;20158;-82
2021/10/14 05:32:31;;;;;;;63.38;35.70;;;230.60;2252.80;;;;;;5092504;28;20064;-82
2021/10/14 05:34:59;;;;;;;148.57;80.57;;;230.60;2252.80;;;;;;5091968;28;20113;-82
2021/10/14 05:37:26;;;;;;;173.68;80.82;;;230.70;2252.80;;;;;;5092127;28;20112;-82
2021/10/14 05:39:52;;;;;;;93.63;50.00;;;230.70;2252.80;;;;;;5092654;28;20024;-83
2021/10/14 05:42:17;;;;;;;89.20;50.47;;;230.60;2252.80;;;;;;5093697;28;20361;-82
2021/10/14 05:44:43;;;;;;;104.03;59.63;;;230.70;2252.80;;;;;;5092185;28;20031;-83
2021/10/14 05:47:09;;;;;;;88.53;55.63;;;230.60;2252.80;;;;;;5092423;28;20028;-83
2021/10/14 05:49:35;;;;;;;86.13;52.42;;;230.60;2252.80;;;;;;5092374;28;20091;-82
2021/10/14 05:52:01;;;;;;;106.15;64.88;;;230.60;2252.80;;;;;;5092092;28;20119;-83
2021/10/14 05:54:26;;;;;;;163.20;98.72;;;230.70;2252.80;;;;;;5092111;28;20032;-82
2021/10/14 05:56:52;;;;;;;94.32;61.00;;;230.70;2252.80;;;;;;5092254;28;20162;-82
2021/10/14 05:59:18;;;;;;;43.53;32.35;;;230.70;2252.80;;;;;;5091990;28;20501;-83
2021/10/14 06:01:44;;;;;;;45.47;34.10;;;230.80;2252.80;;;;;;5092219;28;20474;-82
2021/10/14 06:04:10;;;;;;;51.55;36.70;;;230.80;2252.80;;;;;;5092075;28;20024;-83
2021/10/14 06:06:35;;;;;;;49.00;35.17;;;230.80;2252.80;;;;;;5091811;28;20028;-83
2021/10/14 06:09:01;;;;;;;55.53;38.75;;;230.70;2252.80;;;;;;5092243;28;20034;-83
2021/10/14 06:11:27;;;;;;;41.67;30.08;;;230.70;2252.80;;;;;;5094024;28;20421;-83
2021/10/14 06:13:53;;;;;;;36.22;25.77;;;230.80;2252.80;;;;;;5095446;28;20054;-83
2021/10/14 06:16:19;;;;;;;28.33;20.00;;;230.80;2252.80;;;;;;5095638;28;20032;-82
2021/10/14 06:18:44;;;;;;;32.65;21.60;;;230.80;2252.80;;;;;;5095413;28;20479;-81
2021/10/14 06:21:10;;;;;;;32.90;25.10;;;230.80;2252.80;;;;;;5095653;28;20035;-82
2021/10/14 06:23:36;;;;;;;42.85;30.52;;;230.80;2252.80;;;;;;5095549;28;20060;-82
2021/10/14 06:26:02;;;;;;;33.75;24.05;;;230.80;2252.80;;;;;;5096650;28;20032;-83
2021/10/14 06:28:28;;;;;;;34.67;26.70;;;230.80;2252.80;;;;;;5095442;28;20035;-82
2021/10/14 06:30:54;;;;;;;33.63;25.05;;;230.80;2252.80;;;;;;5095418;28;20024;-82
2021/10/14 06:33:19;;;;;;;50.63;33.28;;;230.80;2252.80;;;;;;5095021;28;20024;-82
2021/10/14 06:35:45;;;;;;;49.67;31.92;;;230.80;2252.80;;;;;;5095367;28;20048;-83
2021/10/14 06:38:11;;;;;;;43.03;28.35;;;230.80;2252.80;;;;;;5095320;28;20494;-82
2021/10/14 06:40:37;;;;;;;29.35;19.75;;;230.80;2252.80;;;;;;5095306;28;20372;-82
2021/10/14 06:43:03;;;;;;;25.70;19.80;;;230.80;2252.80;;;;;;5095192;28;20034;-83
2021/10/14 06:45:29;;;;;;;36.83;24.65;;;230.90;2252.80;;;;;;5095336;28;20372;-83
2021/10/14 06:47:55;;;;;;;39.83;25.50;;;230.90;2252.80;;;;;;5094998;28;20570;-83
2021/10/14 06:50:21;;;;;;;28.38;19.00;;;231.00;2252.80;;;;;;5095202;28;20048;-82
2021/10/14 06:52:47;;;;;;;37.28;24.63;;;231.00;2252.80;;;;;;5095140;28;20035;-83
2021/10/14 06:55:13;;;;;;;27.83;19.95;;;231.10;2252.80;;;;;;5095087;28;20060;-83
2021/10/14 06:57:38;;;;;;;28.58;20.70;;;231.10;2252.80;;;;;;5094844;28;20028;-82
2021/10/14 07:00:06;;;;;;;20.35;14.82;;;231.20;2252.80;;;;;;5094918;28;20034;-82
2021/10/14 07:02:32;;;;;;;18.55;14.32;;;231.10;2252.80;;;;;;5095348;28;20028;-82
2021/10/14 07:04:58;;;;;;;17.63;14.95;;;231.10;2252.80;;;;;;5094658;28;20031;-81
2021/10/14 07:07:23;;;;;;;21.85;16.85;;;231.20;2252.80;;;;;;5094676;28;20032;-81
2021/10/14 07:09:49;;;;;;;24.05;17.30;;;231.10;2252.80;;;;;;5094265;28;20028;-82
2021/10/14 07:12:15;;;;;;;30.35;21.42;;;231.20;2252.80;;;;;;5094691;28;20035;-82
2021/10/14 07:14:43;;;;;;;34.47;26.20;;;231.20;2252.80;;;;;;5095594;28;20020;-82
2021/10/14 07:17:09;;;;;;;28.50;21.48;;;231.20;2252.80;;;;;;5094397;28;20024;-82
2021/10/14 07:19:35;;;;;;;38.90;29.25;;;231.20;2252.80;;;;;;5094372;28;20024;-82
2021/10/14 07:22:03;;;;;;;37.55;26.17;;;231.30;2252.80;;;;;;5094089;28;20048;-83
2021/10/14 07:24:32;;;;;;;43.28;30.15;;;231.30;2252.80;;;;;;5095355;28;20032;-82
2021/10/14 07:26:58;;;;;;;25.73;19.00;;;231.30;2252.80;;;;;;5094376;28;20442;-83
2021/10/14 07:29:26;;;;;;;29.27;23.15;;;231.30;2252.80;;;;;;5093943;28;20056;-81
2021/10/14 07:31:52;;;;;;;30.50;22.45;;;231.30;2252.80;;;;;;5094047;28;20114;-83
2021/10/14 07:34:18;;;;;;;23.88;19.52;;;231.30;2252.80;;;;;;5094157;28;20132;-83
2021/10/14 07:36:45;;;;;;;26.38;18.92;;;231.30;2252.80;;;;;;5094082;28;20364;-82
2021/10/14 07:39:10;;;;;;;23.42;17.38;;;231.30;2252.80;;;;;;5094033;28;20032;-82
2021/10/14 07:41:36;;;;;;;32.60;26.20;;;231.30;2252.80;;;;;;5095305;28;20034;-83
2021/10/14 07:44:02;;;;;;;23.92;19.83;;;256.00;2252.80;;;;;;5093802;28;20021;-83
2021/10/14 07:46:28;;;;;;;23.70;17.90;;;256.00;2252.80;;;;;;5093848;28;20036;-83
2021/10/14 07:48:55;;;;;;;17.42;15.27;;;256.00;2252.80;;;;;;5093927;28;20024;-83
2021/10/14 07:51:21;;;;;;;22.48;16.15;;;256.10;2252.80;;;;;;5093723;28;20446;-83
2021/10/14 07:53:47;;;;;;;31.02;21.77;;;256.00;2252.80;;;;;;5094016;28;20020;-81
2021/10/14 07:56:13;;;;;;;24.23;16.17;;;256.00;2252.80;;;;;;5093994;28;20124;-84
2021/10/14 07:58:38;;;;;;;24.55;19.60;;;256.00;2252.80;;;;;;5093732;28;20031;-85
2021/10/14 08:01:05;;;;;;;22.42;16.38;;;256.00;2252.80;;;;;;5094014;28;20024;-83
2021/10/14 08:03:31;;;;;;;18.05;12.73;;;256.00;2252.80;;;;;;5093653;28;20492;-80
2021/10/14 08:05:57;;;;;;;19.38;17.35;;;256.10;2252.80;;;;;;5094428;28;20095;-82
2021/10/14 08:08:22;;;;;;;47.03;37.15;;;256.10;2252.80;;;;;;5094742;28;20170;-80
2021/10/14 08:10:48;;;;;;;59.25;44.15;;;256.00;2252.80;;;;;;5093362;28;20031;-81
2021/10/14 08:13:14;;;;;;;30.35;23.38;;;256.00;2252.80;;;;;;5093293;28;20378;-81
2021/10/14 08:15:41;;;;;;;30.75;23.75;;;231.30;2252.80;;;;;;5093329;28;20509;-79
2021/10/14 08:18:08;;;;;;;29.05;22.50;;;256.00;2252.80;;;;;;5093164;28;20047;-82
2021/10/14 08:20:34;;;;;;;28.08;23.08;;;231.30;2252.80;;;;;;5093344;28;20380;-79
2021/10/14 08:23:02;;;;;;;27.80;22.02;;;256.00;2252.80;;;;;;5094181;28;20468;-81
2021/10/14 08:25:28;;;;;;;31.13;24.85;;;256.00;2252.80;;;;;;5092938;28;20439;-80
2021/10/14 08:27:54;;;;;;;24.67;20.80;;;256.10;2252.80;;;;;;5094372;28;20070;-80
2021/10/14 08:30:20;;;;;;;20.20;16.42;;;256.20;2252.80;;;;;;5094280;28;20059;-80
2021/10/14 08:32:47;;;;;;;19.23;16.48;;;256.20;2252.80;;;;;;5092837;28;20118;-80
2021/10/14 08:35:13;;;;;;;27.05;17.92;;;256.10;2252.80;;;;;;5093044;28;20048;-81
2021/10/14 08:37:39;;;;;;;25.60;20.45;;;256.20;2252.80;;;;;;5093797;28;20028;-79
2021/10/14 08:40:06;;;;;;;22.85;16.98;;;256.20;2252.80;;;;;;5092541;28;20085;-80
2021/10/14 08:42:32;;;;;;;26.35;18.85;;;256.20;2252.80;;;;;;5094303;28;20486;-78
2021/10/14 08:45:09;;;;;;;25.25;20.02;;;256.20;2252.80;;;;;;5094254;28;20418;-79
2021/10/14 08:47:38;;;;;;;40.70;25.30;;;256.20;2252.80;;;;;;5092642;28;20047;-81
2021/10/14 08:50:05;;;;;;;20.23;15.05;;;256.20;2252.80;;;;;;5092794;28;20031;-83
2021/10/14 08:52:31;;;;;;;20.77;15.77;;;256.20;2252.80;;;;;;5092480;28;20031;-80
2021/10/14 08:54:57;;;;;;;22.40;18.75;;;256.20;2252.80;;;;;;5092652;28;20028;-80
2021/10/14 08:57:24;;;;;;;24.92;18.02;;;256.20;2252.80;;;;;;5092391;28;20384;-80
2021/10/14 08:59:50;;;;;;;20.10;14.95;;;256.20;2252.80;;;;;;5092301;28;20039;-78
2021/10/14 09:02:18;;;;;;;19.33;14.57;;;256.20;2252.80;;;;;;5092483;28;20035;-79
2021/10/14 09:04:53;;;;;;;16.58;11.98;;;256.30;2252.80;;;;;;5092139;28;20032;-78
2021/10/14 09:07:20;;;;;;;18.05;12.02;;;256.30;2252.80;;;;;;5092211;28;20030;-78
2021/10/14 09:09:48;;;;;;;16.10;13.45;;;256.30;2252.80;;;;;;5092421;28;20031;-77
2021/10/14 09:12:15;;;;;;;21.70;15.35;;;256.30;2252.80;;;;;;5093731;28;20026;-77
2021/10/14 09:15:04;;;;;;;25.02;17.38;;;256.30;2252.80;;;;;;5092253;28;20432;-77
2021/10/14 09:17:42;;;;;;;22.90;16.83;;;256.40;2252.80;;;;;;5093608;28;20161;-78
2021/10/14 09:20:20;;;;;;;16.42;13.25;;;256.30;2252.80;;;;;;5092367;28;20115;-77
2021/10/14 09:23:07;;;;;;;19.55;14.15;;;256.30;2252.80;;;;;;5092040;28;20468;-77
2021/10/14 09:25:41;;;;;;;30.63;18.60;;;256.20;2252.80;;;;;;5092302;28;20032;-77
2021/10/14 09:28:24;;;;;;;25.40;16.00;;;256.20;2252.80;;;;;;5091981;28;20031;-76
2021/10/14 09:31:03;;;;;;;38.92;23.17;;;256.30;2252.80;;;;;;5092288;28;20032;-79
2021/10/14 09:33:47;;;;;;;28.08;18.90;;;256.30;2252.80;;;;;;5093514;28;20069;-78
2021/10/14 09:36:14;;;;;;;38.03;23.30;;;256.30;2252.80;;;;;;5091871;28;20042;-78
2021/10/14 09:38:41;;;;;;;26.65;17.38;;;256.30;2252.80;;;;;;5092525;28;20430;-77
2021/10/14 09:41:11;;;;;;;19.50;14.35;;;256.30;2252.80;;;;;;5093164;28;20020;-77
2021/10/14 09:43:38;;;;;;;23.73;17.98;;;256.30;2252.80;;;;;;5091907;28;20027;-77
2021/10/14 09:46:04;;;;;;;23.50;18.33;;;256.30;2252.80;;;;;;5093465;28;20024;-78
2021/10/14 09:48:31;;;;;;;37.85;29.05;;;256.40;2252.80;;;;;;5095825;28;20464;-78
2021/10/14 09:50:57;;;;;;;33.40;21.30;;;256.50;2252.80;;;;;;5095954;28;20134;-79
2021/10/14 09:53:25;;;;;;;29.80;20.13;;;256.60;2252.80;;;;;;5097181;28;20513;-78
2021/10/14 09:55:53;;;;;;;26.83;19.85;;;256.60;2252.80;;;;;;5095549;28;20353;-76
2021/10/14 09:58:20;;;;;;;26.80;19.23;;;256.70;2252.80;;;;;;5095924;28;20047;-76
2021/10/14 10:00:46;;;;;;;23.88;16.55;;;256.70;2252.80;;;;;;5095862;28;20035;-77
2021/10/14 10:03:23;;;;;;;24.08;18.25;;;256.70;2252.80;;;;;;5095494;28;20389;-78
2021/10/14 10:05:51;;;;;;;25.45;19.92;;;256.80;2252.80;;;;;;5095852;28;20022;-77
2021/10/14 10:08:30;;;;;;;22.27;16.25;;;256.80;2252.80;;;;;;5097423;28;20032;-77
2021/10/14 10:11:01;;;;;;;20.17;17.08;;;256.80;2252.80;;;;;;5097215;28;20028;-81
2021/10/14 10:13:28;;;;;;;31.25;21.50;;;256.80;2252.80;;;;;;5095814;28;20109;-80
2021/10/14 10:15:54;;;;;;;24.35;17.80;;;281.80;2278.40;;;;;;5095740;28;20121;-81
2021/10/14 10:18:29;;;;;;;23.40;17.80;;;256.90;2252.80;;;;;;5095103;28;20476;-80
2021/10/14 10:21:02;;;;;;;60.15;40.08;;;256.80;2252.80;;;;;;5096956;28;20055;-80
2021/10/14 10:23:43;;;;;;;29.30;21.80;;;256.80;2252.80;;;;;;5095778;28;20028;-81
2021/10/14 10:26:36;;;;;;;33.10;23.90;;;256.80;2252.80;;;;;;5097285;28;20031;-80
2021/10/14 10:29:03;;;;;;;30.08;22.83;;;256.70;2252.80;;;;;;5095688;28;20073;-80
2021/10/14 10:31:54;;;;;;;33.08;25.45;;;256.80;2252.80;;;;;;5095589;28;20066;-82
2021/10/14 10:37:26;;;;;;;26.40;19.50;;;256.80;2252.80;;;;;;5096601;28;20040;-84
2021/10/14 10:39:56;;;;;;;29.80;21.67;;;256.80;2252.80;;;;;;5094840;28;20031;-85
2021/10/14 10:42:38;;;;;;;30.60;22.42;;;256.80;2252.80;;;;;;5095558;28;20529;-81
2021/10/14 10:45:28;;;;;;;26.20;20.23;;;256.70;2252.80;;;;;;5094992;28;20554;-83
2021/10/14 10:47:54;;;;;;;23.75;18.27;;;256.80;2252.80;;;;;;5096393;28;20024;-82
2021/10/14 10:50:25;;;;;;;24.80;17.75;;;256.90;2252.80;;;;;;5095199;28;20024;-81
2021/10/14 10:53:09;;;;;;;21.73;16.20;;;256.80;2252.80;;;;;;5096156;28;20047;-80
2021/10/14 10:55:56;;;;;;;28.52;19.58;;;256.80;2252.80;;;;;;5094945;28;20031;-82
2021/10/14 10:58:28;;;;;;;25.13;19.55;;;256.90;2252.80;;;;;;5094064;28;20024;-80
2021/10/14 11:00:54;;;;;;;27.00;20.95;;;256.90;2252.80;;;;;;5094911;28;20186;-81
2021/10/14 11:03:22;;;;;;;29.35;24.42;;;256.90;2252.80;;;;;;5094834;28;20020;-79
2021/10/14 11:05:52;;;;;;;24.13;17.25;;;256.90;2252.80;;;;;;5094479;28;20793;-83
2021/10/14 11:08:23;;;;;;;26.25;17.67;;;256.70;2252.80;;;;;;5094736;28;20459;-79
2021/10/14 11:10:57;;;;;;;27.38;19.15;;;256.80;2252.80;;;;;;5096114;28;20027;-80
2021/10/14 11:13:25;;;;;;;27.58;18.30;;;256.70;2252.80;;;;;;5095365;28;20082;-79
2021/10/14 11:15:56;;;;;;;28.70;20.52;;;256.70;2252.80;;;;;;5094451;28;20088;-80
2021/10/14 11:18:24;;;;;;;32.92;22.08;;;256.80;2252.80;;;;;;5095181;28;20051;-82
2021/10/14 11:20:51;;;;;;;36.25;21.63;;;256.80;2252.80;;;;;;5093991;28;20020;-81
2021/10/14 11:23:18;;;;;;;36.17;26.63;;;256.90;2252.80;;;;;;5095457;28;20368;-82
2021/10/14 11:25:58;;;;;;;28.20;21.80;;;256.90;2252.80;;;;;;5094203;28;20531;-80
2021/10/14 11:28:24;;;;;;;40.92;31.38;;;256.90;2252.80;;;;;;5094316;28;20032;-79
2021/10/14 11:30:52;;;;;;;56.03;33.08;;;256.90;2252.80;;;;;;5094257;28;20375;-83
2021/10/14 11:33:33;;;;;;;23.75;18.00;;;256.90;2252.80;;;;;;5094295;28;20024;-81
2021/10/14 11:36:00;;;;;;;34.67;22.95;;;256.90;2252.80;;;;;;5094117;28;20040;-81
2021/10/14 11:38:26;;;;;;;37.13;25.73;;;256.90;2252.80;;;;;;5094048;28;20028;-80
2021/10/14 11:40:53;;;;;;;50.85;31.20;;;256.80;2252.80;;;;;;5093894;28;20032;-81
2021/10/14 11:43:26;;;;;;;40.13;28.30;;;256.90;2252.80;;;;;;5094151;28;20400;-81
2021/10/14 11:45:53;;;;;;;32.50;22.05;;;256.90;2252.80;;;;;;5093981;28;20058;-80
2021/10/14 11:48:34;;;;;;;42.45;23.75;;;256.90;2252.80;;;;;;5093689;28;20028;-81
2021/10/14 11:51:08;;;;;;;37.10;25.27;;;256.90;2252.80;;;;;;5093903;28;20042;-79
2021/10/14 11:53:36;;;;;;;28.98;18.58;;;256.80;2252.80;;;;;;5093720;28;20024;-81
2021/10/14 11:56:07;;;;;;;36.70;25.17;;;256.70;2252.80;;;;;;5094018;28;20357;-84
2021/10/14 11:58:34;;;;;;;43.67;24.48;;;256.70;2252.80;;;;;;5094032;28;20032;-83
2021/10/14 12:01:14;;;;;;;38.88;25.40;;;256.70;2252.80;;;;;;5094359;28;20169;-84
2021/10/14 12:03:44;;;;;;;42.15;30.92;;;256.90;2252.80;;;;;;5094050;28;20455;-82
2021/10/14 12:06:11;;;;;;;46.22;32.72;;;256.90;2252.80;;;;;;5093936;28;20081;-83